createdAt,value
2023-04-26T00:02:21.988Z,1.58
2023-04-26T00:04:56.656Z,1.27
2023-04-26T00:07:26.788Z,2.67
2023-04-26T00:09:53.827Z,3.45
2023-04-26T00:12:21.341Z,2.75
2023-04-26T00:14:48.272Z,1.13
2023-04-26T00:17:15.527Z,1.98
2023-04-26T00:19:42.607Z,1.85
2023-04-26T00:22:09.683Z,2.30
2023-04-26T00:24:36.608Z,2.17
2023-04-26T00:27:09.007Z,1.85
2023-04-26T00:29:37.226Z,0.65
2023-04-26T00:32:04.551Z,1.02
2023-04-26T00:34:36.145Z,3.53
2023-04-26T00:37:03.930Z,1.05
2023-04-26T00:39:31.824Z,0.95
2023-04-26T00:41:59.007Z,1.92
2023-04-26T00:44:25.956Z,1.17
2023-04-26T00:46:54.026Z,1.67
2023-04-26T00:49:24.186Z,1.63
2023-04-26T00:51:52.877Z,1.27
2023-04-26T00:54:21.430Z,4.45
2023-04-26T00:56:52.000Z,1.67
2023-04-26T00:59:20.825Z,0.75
2023-04-26T01:01:49.135Z,4.82
2023-04-26T01:04:16.980Z,3.05
2023-04-26T01:06:44.646Z,1.23
2023-04-26T01:09:14.851Z,3.65
2023-04-26T01:11:43.603Z,1.05
2023-04-26T01:14:11.413Z,2.25
2023-04-26T01:16:40.882Z,1.25
2023-04-26T01:19:15.409Z,2.45
2023-04-26T01:21:43.027Z,4.30
2023-04-26T01:24:11.660Z,1.73
2023-04-26T01:26:45.350Z,2.47
2023-04-26T01:29:21.898Z,1.90
2023-04-26T01:31:49.261Z,1.45
2023-04-26T01:34:16.534Z,0.50
2023-04-26T01:36:46.207Z,2.35
2023-04-26T01:39:13.593Z,0.73
2023-04-26T01:41:40.597Z,0.90
2023-04-26T01:44:07.823Z,0.98
2023-04-26T01:46:34.893Z,2.47
2023-04-26T01:49:01.907Z,1.98
2023-04-26T01:51:30.261Z,2.08
2023-04-26T01:53:57.296Z,0.93
2023-04-26T01:56:25.486Z,1.42
2023-04-26T01:58:55.579Z,0.93
2023-04-26T02:01:23.673Z,1.38
2023-04-26T02:03:51.305Z,3.85
2023-04-26T02:06:20.052Z,1.20
2023-04-26T02:08:47.063Z,2.25
2023-04-26T02:11:14.002Z,1.00
2023-04-26T02:13:41.284Z,3.55
2023-04-26T02:16:08.296Z,0.60
2023-04-26T02:18:35.475Z,0.90
2023-04-26T02:21:02.438Z,2.92
2023-04-26T02:23:31.497Z,0.77
2023-04-26T02:25:58.435Z,3.08
2023-04-26T02:28:25.409Z,0.95
2023-04-26T02:30:56.791Z,1.92
2023-04-26T02:33:24.371Z,1.20
2023-04-26T02:35:51.599Z,4.40
2023-04-26T02:38:19.423Z,0.98
2023-04-26T02:40:46.450Z,1.63
2023-04-26T02:43:14.157Z,1.45
2023-04-26T02:45:42.993Z,2.15
2023-04-26T02:48:11.790Z,1.48
2023-04-26T02:50:39.344Z,2.38
2023-04-26T02:53:06.353Z,1.00
2023-04-26T02:55:33.711Z,3.20
2023-04-26T02:58:00.830Z,2.08
2023-04-26T03:00:28.581Z,1.90
2023-04-26T03:02:56.888Z,2.95
2023-04-26T03:05:24.538Z,0.85
2023-04-26T03:07:52.586Z,0.70
2023-04-26T03:10:19.516Z,1.30
2023-04-26T03:12:46.423Z,4.05
2023-04-26T03:15:15.889Z,1.10
2023-04-26T03:17:44.315Z,0.63
2023-04-26T03:20:12.788Z,4.25
2023-04-26T03:22:39.864Z,1.17
2023-04-26T03:25:07.994Z,1.80
2023-04-26T03:27:35.660Z,2.10
2023-04-26T03:30:04.190Z,5.18
2023-04-26T03:32:31.857Z,2.47
2023-04-26T03:34:59.341Z,1.23
2023-04-26T03:37:26.449Z,3.25
2023-04-26T03:39:59.757Z,2.55
2023-04-26T03:42:26.820Z,1.42
2023-04-26T03:44:54.398Z,1.30
2023-04-26T03:47:22.736Z,2.97
2023-04-26T03:49:50.198Z,2.08
2023-04-26T03:52:17.242Z,0.85
2023-04-26T03:54:44.234Z,1.20
2023-04-26T03:57:12.255Z,2.83
2023-04-26T03:59:40.227Z,0.95
2023-04-26T04:02:07.523Z,3.58
2023-04-26T04:04:34.808Z,3.75
2023-04-26T04:07:02.138Z,1.27
2023-04-26T04:09:29.351Z,2.97
2023-04-26T04:11:56.258Z,1.42
2023-04-26T04:14:23.556Z,1.88
2023-04-26T04:16:50.886Z,1.95
2023-04-26T04:19:18.233Z,2.25
2023-04-26T04:21:47.051Z,1.77
2023-04-26T04:24:13.984Z,0.65
2023-04-26T04:26:41.216Z,1.20
2023-04-26T04:29:09.550Z,3.08
2023-04-26T04:31:40.161Z,1.08
2023-04-26T04:34:08.826Z,2.47
2023-04-26T04:36:36.321Z,4.20
2023-04-26T04:39:04.250Z,2.85
2023-04-26T04:41:32.352Z,3.00
2023-04-26T04:44:00.475Z,3.05
2023-04-26T04:46:27.921Z,1.98
2023-04-26T04:48:55.113Z,2.28
2023-04-26T04:51:22.230Z,2.08
2023-04-26T04:53:49.202Z,1.85
2023-04-26T04:56:18.418Z,3.17
2023-04-26T04:58:46.323Z,3.35
2023-04-26T05:01:13.817Z,2.22
2023-04-26T05:03:51.335Z,2.45
2023-04-26T05:06:19.054Z,2.83
2023-04-26T05:08:45.976Z,2.28
2023-04-26T05:11:13.025Z,1.17
2023-04-26T05:13:40.158Z,2.85
2023-04-26T05:16:07.504Z,4.40
2023-04-26T05:23:30.110Z,4.32
2023-04-26T05:25:57.540Z,4.72
2023-04-26T05:41:50.274Z,6.70
2023-04-26T05:44:17.473Z,5.43
2023-04-26T05:46:46.853Z,3.97
2023-04-26T05:49:14.124Z,2.53
2023-04-26T05:51:41.152Z,6.55
2023-04-26T05:54:08.184Z,3.15
2023-04-26T05:56:35.336Z,3.00
2023-04-26T05:59:02.816Z,2.33
2023-04-26T06:01:31.100Z,3.10
2023-04-26T06:04:00.827Z,6.90
2023-04-26T06:06:33.549Z,5.10
2023-04-26T06:09:00.630Z,6.25
2023-04-26T06:13:55.390Z,5.03
2023-04-26T18:37:36.163Z,11.67
2023-04-26T19:36:46.924Z,12.30
2023-04-26T19:39:16.068Z,9.32
2023-04-26T19:41:43.065Z,11.93
2023-04-26T19:44:10.002Z,8.48
2023-04-26T19:46:37.889Z,10.75
2023-04-26T19:49:04.862Z,11.98
2023-04-26T19:51:32.215Z,10.77
2023-04-26T19:53:59.235Z,10.60
2023-04-26T19:56:26.297Z,14.80
2023-04-26T19:58:53.261Z,11.77
2023-04-26T20:01:20.540Z,9.60
2023-04-26T20:03:47.841Z,11.90
2023-04-26T20:06:14.913Z,11.70
2023-04-26T20:08:41.864Z,13.85
2023-04-26T20:11:14.673Z,8.95
2023-04-26T20:13:42.768Z,10.18
2023-04-26T20:16:10.661Z,10.70
2023-04-26T20:18:37.871Z,10.75
2023-04-26T20:21:05.897Z,8.93
2023-04-26T20:23:32.974Z,12.35
2023-04-26T20:26:00.040Z,10.30
2023-04-26T20:28:27.144Z,8.65
2023-04-26T20:30:54.170Z,12.23
2023-04-26T20:33:21.387Z,8.45
2023-04-26T20:35:48.480Z,10.40
2023-04-26T20:38:15.551Z,11.73
2023-04-26T20:40:42.586Z,10.18
2023-04-26T20:43:09.635Z,9.43
2023-04-26T20:45:37.185Z,10.13
2023-04-26T20:48:04.429Z,9.25
2023-04-26T20:50:31.416Z,11.38
2023-04-26T20:52:58.384Z,10.43
2023-04-26T20:55:25.405Z,8.98
2023-04-26T20:57:52.564Z,9.63
2023-04-26T21:00:20.179Z,9.20
2023-04-26T21:02:47.350Z,10.30
2023-04-26T21:05:14.417Z,7.80
2023-04-26T21:07:41.400Z,11.07
2023-04-26T21:10:09.182Z,13.57
2023-04-26T21:12:36.232Z,10.70
2023-04-26T21:15:03.890Z,11.10
2023-04-26T21:17:30.902Z,10.23
2023-04-26T21:19:57.956Z,9.93
2023-04-26T21:22:24.900Z,11.82
2023-04-26T21:24:52.358Z,9.00
2023-04-26T21:27:19.312Z,8.00
2023-04-26T21:29:49.266Z,7.72
2023-04-26T21:32:16.995Z,9.48
2023-04-26T21:34:43.933Z,10.10
2023-04-26T21:37:10.870Z,13.75
2023-04-26T21:39:37.879Z,9.45
2023-04-26T21:42:04.839Z,9.15
2023-04-26T21:44:31.770Z,9.32
2023-04-26T21:46:58.717Z,8.35
2023-04-26T21:49:26.003Z,7.78
2023-04-26T21:51:52.998Z,9.10
2023-04-26T21:54:19.953Z,16.67
2023-04-26T21:56:46.911Z,17.50
2023-04-26T21:59:14.627Z,8.13
2023-04-26T22:01:41.671Z,13.20
2023-04-26T22:04:08.764Z,11.35
2023-04-26T22:06:35.973Z,11.77
2023-04-26T22:09:03.629Z,13.35
2023-04-26T22:11:30.576Z,16.85
2023-04-26T22:13:57.506Z,11.40
2023-04-26T22:16:24.519Z,8.40
2023-04-26T22:18:51.530Z,8.90
2023-04-26T22:21:18.467Z,8.15
2023-04-26T22:23:45.417Z,9.77
2023-04-26T22:26:12.341Z,9.40
2023-04-26T22:28:39.292Z,8.48
2023-04-26T22:31:06.406Z,8.15
2023-04-26T22:33:33.410Z,10.52
2023-04-26T22:36:00.341Z,8.88
2023-04-26T22:38:27.339Z,10.77
2023-04-26T22:40:54.429Z,8.88
2023-04-26T22:43:23.258Z,8.43
2023-04-26T22:45:50.565Z,7.57
2023-04-26T22:48:17.749Z,9.98
2023-04-26T22:50:44.691Z,8.35
2023-04-26T22:53:11.631Z,8.52
2023-04-26T22:55:38.616Z,7.15
2023-04-26T22:58:05.776Z,9.55
2023-04-26T23:00:32.731Z,6.80
2023-04-26T23:02:59.798Z,9.77
2023-04-26T23:05:26.847Z,11.95
2023-04-26T23:07:53.820Z,5.97
2023-04-26T23:10:21.127Z,7.80
2023-04-26T23:12:50.796Z,8.52
2023-04-26T23:15:17.915Z,7.60
2023-04-26T23:17:45.587Z,8.50
2023-04-26T23:20:12.885Z,8.75
2023-04-26T23:22:41.273Z,7.32
2023-04-26T23:25:09.436Z,8.57
2023-04-26T23:27:37.535Z,10.43
2023-04-26T23:30:05.081Z,7.35
2023-04-26T23:32:32.145Z,10.05
2023-04-26T23:34:59.153Z,7.20
2023-04-26T23:37:26.134Z,5.80
2023-04-26T23:39:53.038Z,9.05
2023-04-26T23:42:19.965Z,8.48
2023-04-26T23:44:46.902Z,6.72
2023-04-26T23:47:13.892Z,8.55
2023-04-26T23:49:41.079Z,7.47
2023-04-26T23:52:08.064Z,9.85
2023-04-26T23:54:34.992Z,7.40
2023-04-26T23:57:04.031Z,9.32
2023-04-26T23:59:31.101Z,6.90
